Time;durP1;ratioP1;P1;durP2;ratioP2;P2;SDS_P1;SDS_P2;PMS_P1;PMS_P2;Temp;Humidity;BMP_temperature;BMP_pressure;BME280_temperature;BME280_humidity;BME280_pressure;Samples;Min_cycle;Max_cycle;Signal;HPM_P1;HPM_P2
2023/07/18 00:01:56;;;;;;;2.80;0.90;;;;;;;;;;5033860;28;20075;-75
2023/07/18 00:04:21;;;;;;;3.97;1.10;;;;;;;;;;5033928;28;20063;-75
2023/07/18 00:06:47;;;;;;;2.65;0.90;;;;;;;;;;5033614;28;20025;-77
2023/07/18 00:09:12;;;;;;;2.88;0.77;;;;;;;;;;5016279;28;20113;-75
2023/07/18 00:11:38;;;;;;;3.35;0.80;;;;;;;;;;5016757;28;20101;-75
2023/07/18 00:14:03;;;;;;;3.40;0.98;;;;;;;;;;5033810;28;20470;-75
2023/07/18 00:16:28;;;;;;;4.32;0.93;;;;;;;;;;5015686;28;20409;-75
2023/07/18 00:18:54;;;;;;;3.80;0.90;;;;;;;;;;5018763;28;20029;-75
2023/07/18 00:21:20;;;;;;;2.33;1.00;;;;;;;;;;5034598;28;20028;-75
2023/07/18 00:23:46;;;;;;;2.90;0.93;;;;;;;;;;5033528;28;20026;-75
2023/07/18 00:26:11;;;;;;;3.35;1.02;;;;;;;;;;5031923;28;20032;-75
2023/07/18 00:28:37;;;;;;;2.78;0.93;;;;;;;;;;5014275;28;20025;-75
2023/07/18 00:31:03;;;;;;;3.20;1.08;;;;;;;;;;5015749;28;20021;-75
2023/07/18 00:33:28;;;;;;;2.72;0.90;;;;;;;;;;5019411;28;20060;-75
2023/07/18 00:35:54;;;;;;;3.15;0.75;;;;;;;;;;5015468;28;20500;-76
2023/07/18 00:38:20;;;;;;;2.30;0.90;;;;;;;;;;5015995;28;20055;-75
2023/07/18 00:40:48;;;;;;;2.88;0.88;;;;;;;;;;5032983;28;20029;-76
2023/07/18 00:43:14;;;;;;;2.50;0.93;;;;;;;;;;5027366;28;20112;-76
2023/07/18 00:45:40;;;;;;;4.95;1.25;;;;;;;;;;5004281;28;20365;-75
2023/07/18 00:48:07;;;;;;;5.05;1.42;;;;;;;;;;5008298;28;20025;-75
2023/07/18 00:50:32;;;;;;;2.50;1.42;;;;;;;;;;5032480;28;20029;-75
2023/07/18 00:53:00;;;;;;;3.15;1.30;;;;;;;;;;5030319;28;20095;-75
2023/07/18 00:55:27;;;;;;;3.42;1.27;;;;;;;;;;5033029;28;20025;-75
2023/07/18 00:57:53;;;;;;;3.83;1.40;;;;;;;;;;5015218;28;20386;-76
2023/07/18 01:00:22;;;;;;;3.17;1.20;;;;;;;;;;5032930;28;20025;-75
2023/07/18 01:02:48;;;;;;;4.10;1.25;;;;;;;;;;5015771;28;20045;-75
2023/07/18 01:05:19;;;;;;;5.72;1.40;;;;;;;;;;5031809;28;20413;-75
2023/07/18 01:07:45;;;;;;;3.85;1.40;;;;;;;;;;5018563;28;20021;-76
2023/07/18 01:10:25;;;;;;;5.10;1.50;;;;;;;;;;5026852;28;20460;-75
2023/07/18 01:12:51;;;;;;;4.40;1.60;;;;;;;;;;5014419;28;20017;-74
2023/07/18 01:15:16;;;;;;;6.85;2.08;;;;;;;;;;5025177;28;20463;-75
2023/07/18 01:17:45;;;;;;;4.05;1.50;;;;;;;;;;5009823;28;20049;-75
2023/07/18 01:20:14;;;;;;;6.20;1.65;;;;;;;;;;5028271;28;20037;-75
2023/07/18 01:22:39;;;;;;;4.60;1.52;;;;;;;;;;5011872;28;20029;-75
2023/07/18 01:25:05;;;;;;;6.70;1.90;;;;;;;;;;5029220;28;20026;-76
2023/07/18 01:27:31;;;;;;;2.80;1.52;;;;;;;;;;5031001;28;20018;-75
2023/07/18 01:29:56;;;;;;;5.32;1.95;;;;;;;;;;5015575;28;20409;-75
2023/07/18 01:32:22;;;;;;;4.90;1.60;;;;;;;;;;5032449;28;20136;-76
2023/07/18 01:34:47;;;;;;;4.53;1.75;;;;;;;;;;5032486;28;20442;-74
2023/07/18 01:37:15;;;;;;;3.03;1.50;;;;;;;;;;5032693;28;20092;-75
2023/07/18 01:39:40;;;;;;;4.25;1.50;;;;;;;;;;5032432;28;20060;-75
2023/07/18 01:42:06;;;;;;;3.72;1.50;;;;;;;;;;5032505;28;20041;-75
2023/07/18 01:44:33;;;;;;;4.53;1.50;;;;;;;;;;5032075;28;20052;-76
2023/07/18 01:46:59;;;;;;;3.10;1.20;;;;;;;;;;5014524;28;20032;-74
2023/07/18 01:49:24;;;;;;;2.83;1.30;;;;;;;;;;5014721;28;20557;-75
2023/07/18 01:51:50;;;;;;;3.85;1.40;;;;;;;;;;5032331;28;20489;-75
2023/07/18 01:54:15;;;;;;;3.67;1.67;;;;;;;;;;5017061;28;20057;-75
2023/07/18 01:56:40;;;;;;;3.00;1.38;;;;;;;;;;5034888;28;20025;-75
2023/07/18 01:59:06;;;;;;;4.90;1.55;;;;;;;;;;5018744;28;20036;-76
2023/07/18 02:01:32;;;;;;;4.97;1.70;;;;;;;;;;5036187;28;20065;-75
2023/07/18 02:03:57;;;;;;;3.60;1.33;;;;;;;;;;5035903;28;20500;-75
2023/07/18 02:06:24;;;;;;;4.97;1.60;;;;;;;;;;5018273;28;20068;-75
2023/07/18 02:08:51;;;;;;;4.43;1.65;;;;;;;;;;5000311;28;20029;-75
2023/07/18 02:11:16;;;;;;;5.10;1.70;;;;;;;;;;5023322;28;20028;-76
2023/07/18 02:13:42;;;;;;;3.55;1.38;;;;;;;;;;5035733;28;20025;-75
2023/07/18 02:16:07;;;;;;;3.85;1.33;;;;;;;;;;5028112;28;20033;-75
2023/07/18 02:18:33;;;;;;;4.13;1.77;;;;;;;;;;5035740;28;20461;-75
2023/07/18 02:20:58;;;;;;;3.45;1.50;;;;;;;;;;5018065;28;20029;-76
2023/07/18 02:23:23;;;;;;;4.45;1.80;;;;;;;;;;5043677;28;20013;-74
2023/07/18 02:25:49;;;;;;;4.28;1.98;;;;;;;;;;5035723;28;20022;-75
2023/07/18 02:28:14;;;;;;;4.47;1.70;;;;;;;;;;5035593;28;20474;-75
2023/07/18 02:30:42;;;;;;;4.82;2.20;;;;;;;;;;5044494;28;20013;-75
2023/07/18 02:33:08;;;;;;;4.50;1.70;;;;;;;;;;5017784;28;20037;-75
2023/07/18 02:35:34;;;;;;;3.95;1.75;;;;;;;;;;5018191;28;20021;-75
2023/07/18 02:37:59;;;;;;;4.30;1.67;;;;;;;;;;5035866;28;20049;-75
2023/07/18 02:40:25;;;;;;;5.25;1.90;;;;;;;;;;5036809;28;20017;-75
2023/07/18 02:42:50;;;;;;;4.82;2.00;;;;;;;;;;5017909;28;20362;-76
2023/07/18 02:45:15;;;;;;;4.07;1.85;;;;;;;;;;5017713;28;20492;-75
2023/07/18 02:47:41;;;;;;;5.30;1.90;;;;;;;;;;5024508;28;20032;-75
2023/07/18 02:50:08;;;;;;;4.20;2.05;;;;;;;;;;5020056;28;20053;-75
2023/07/18 02:52:33;;;;;;;7.32;2.20;;;;;;;;;;5035224;28;20482;-75
2023/07/18 02:54:59;;;;;;;4.88;1.95;;;;;;;;;;5020076;28;20022;-75
2023/07/18 02:57:24;;;;;;;5.88;2.20;;;;;;;;;;5026737;28;20403;-75
2023/07/18 02:59:50;;;;;;;3.78;1.90;;;;;;;;;;5034999;28;20028;-75
2023/07/18 03:02:15;;;;;;;4.72;2.08;;;;;;;;;;5027172;28;20026;-75
2023/07/18 03:04:41;;;;;;;6.40;2.28;;;;;;;;;;5017138;28;20063;-74
2023/07/18 03:07:07;;;;;;;4.75;2.10;;;;;;;;;;5032475;28;20030;-75
2023/07/18 03:09:34;;;;;;;4.20;2.03;;;;;;;;;;5014515;28;20082;-75
2023/07/18 03:12:00;;;;;;;3.92;2.45;;;;;;;;;;5023916;28;20021;-75
2023/07/18 03:14:26;;;;;;;3.28;2.00;;;;;;;;;;5017113;28;20025;-75
2023/07/18 03:16:51;;;;;;;5.18;2.10;;;;;;;;;;5034885;28;20026;-75
2023/07/18 03:19:17;;;;;;;3.80;2.20;;;;;;;;;;5026226;28;20434;-76
2023/07/18 03:21:45;;;;;;;4.75;2.13;;;;;;;;;;5034916;28;20024;-75
2023/07/18 03:24:10;;;;;;;6.35;2.10;;;;;;;;;;5016828;28;20036;-75
2023/07/18 03:26:39;;;;;;;4.70;2.47;;;;;;;;;;5034542;28;20037;-74
2023/07/18 03:29:05;;;;;;;4.38;2.25;;;;;;;;;;5016843;28;20025;-75
2023/07/18 03:31:32;;;;;;;5.53;2.30;;;;;;;;;;5016728;28;20032;-75
2023/07/18 03:33:57;;;;;;;4.00;1.90;;;;;;;;;;5034502;28;20095;-74
2023/07/18 03:36:23;;;;;;;5.25;2.05;;;;;;;;;;5034388;28;20462;-75
2023/07/18 03:38:48;;;;;;;4.28;2.25;;;;;;;;;;5041763;28;20032;-75
2023/07/18 03:41:14;;;;;;;6.40;2.10;;;;;;;;;;5035924;28;20061;-75
2023/07/18 03:43:39;;;;;;;5.55;2.45;;;;;;;;;;5034291;28;20032;-75
2023/07/18 03:46:04;;;;;;;5.03;2.63;;;;;;;;;;5016344;28;20021;-75
2023/07/18 03:48:30;;;;;;;6.30;2.40;;;;;;;;;;5034214;28;20021;-75
2023/07/18 03:50:55;;;;;;;4.95;2.38;;;;;;;;;;5042304;28;20021;-74
2023/07/18 03:53:20;;;;;;;9.85;3.03;;;;;;;;;;5020361;28;20470;-75
2023/07/18 03:55:46;;;;;;;4.55;2.40;;;;;;;;;;5016301;28;20069;-75
2023/07/18 03:58:11;;;;;;;4.28;1.95;;;;;;;;;;5034388;28;20029;-75
2023/07/18 04:00:37;;;;;;;4.72;2.38;;;;;;;;;;5011912;28;20068;-75
2023/07/18 04:03:02;;;;;;;4.93;2.00;;;;;;;;;;5022041;28;20031;-76
2023/07/18 04:05:28;;;;;;;6.53;2.20;;;;;;;;;;5032327;28;20108;-75
2023/07/18 04:07:53;;;;;;;4.28;2.10;;;;;;;;;;5033832;28;20025;-75
2023/07/18 04:10:18;;;;;;;3.78;2.17;;;;;;;;;;5035144;28;20025;-74
2023/07/18 04:12:44;;;;;;;5.25;1.98;;;;;;;;;;5016870;28;20029;-74
2023/07/18 04:15:11;;;;;;;4.28;2.03;;;;;;;;;;5015966;28;20101;-75
2023/07/18 04:17:38;;;;;;;3.45;1.85;;;;;;;;;;5032873;28;20021;-74
2023/07/18 04:20:05;;;;;;;3.75;2.00;;;;;;;;;;5016053;28;20021;-75
2023/07/18 04:22:30;;;;;;;3.92;2.08;;;;;;;;;;5016196;28;20466;-74
2023/07/18 04:24:56;;;;;;;3.30;2.13;;;;;;;;;;5033372;28;20079;-74
2023/07/18 04:27:23;;;;;;;5.40;2.20;;;;;;;;;;5033701;28;20493;-74
2023/07/18 04:29:49;;;;;;;4.55;2.25;;;;;;;;;;5017712;28;20024;-75
2023/07/18 04:32:16;;;;;;;3.72;2.00;;;;;;;;;;5038598;28;20478;-74
2023/07/18 04:34:42;;;;;;;4.25;2.08;;;;;;;;;;5019921;28;20029;-74
2023/07/18 04:37:08;;;;;;;3.78;1.95;;;;;;;;;;5015375;28;20028;-75
2023/07/18 04:39:33;;;;;;;3.67;2.05;;;;;;;;;;5016148;28;20024;-75
2023/07/18 04:41:58;;;;;;;3.30;1.70;;;;;;;;;;5017565;28;20397;-74
2023/07/18 04:44:24;;;;;;;4.05;1.90;;;;;;;;;;5034057;28;20032;-74
2023/07/18 04:46:49;;;;;;;3.78;1.98;;;;;;;;;;5034196;28;20076;-75
2023/07/18 04:49:16;;;;;;;4.82;2.10;;;;;;;;;;5033243;28;20521;-74
2023/07/18 04:51:41;;;;;;;4.25;2.03;;;;;;;;;;5018039;28;20440;-75
2023/07/18 04:54:07;;;;;;;5.78;2.10;;;;;;;;;;5033495;28;20029;-75
2023/07/18 04:56:32;;;;;;;3.80;1.92;;;;;;;;;;5033437;28;20021;-74
2023/07/18 04:58:59;;;;;;;4.93;2.10;;;;;;;;;;5033155;28;20075;-75
2023/07/18 05:01:24;;;;;;;5.07;2.30;;;;;;;;;;5006042;28;20482;-75
2023/07/18 05:03:49;;;;;;;3.00;1.77;;;;;;;;;;5015755;28;20037;-74
2023/07/18 05:06:15;;;;;;;4.40;1.92;;;;;;;;;;5033042;28;20109;-76
2023/07/18 05:08:40;;;;;;;4.38;1.77;;;;;;;;;;5031653;28;20055;-74
2023/07/18 05:11:06;;;;;;;3.95;1.90;;;;;;;;;;4997248;28;20410;-76
2023/07/18 05:13:31;;;;;;;4.50;2.20;;;;;;;;;;5032339;28;20029;-76
2023/07/18 05:16:01;;;;;;;3.95;1.92;;;;;;;;;;5033167;28;20021;-74
2023/07/18 05:18:26;;;;;;;3.83;2.17;;;;;;;;;;5029991;28;20021;-75
2023/07/18 05:20:57;;;;;;;4.97;2.78;;;;;;;;;;5015057;28;20478;-75
2023/07/18 05:23:23;;;;;;;6.65;2.72;;;;;;;;;;5015156;28;20119;-75
2023/07/18 05:25:49;;;;;;;5.03;2.33;;;;;;;;;;5032717;28;20104;-75
2023/07/18 05:28:14;;;;;;;3.70;2.00;;;;;;;;;;5032693;28;20021;-75
2023/07/18 05:30:39;;;;;;;6.45;2.28;;;;;;;;;;5014791;28;20039;-75
2023/07/18 05:33:05;;;;;;;6.43;2.50;;;;;;;;;;5033846;28;20025;-74
2023/07/18 05:35:30;;;;;;;5.28;2.30;;;;;;;;;;5033261;28;20021;-75
2023/07/18 05:37:56;;;;;;;5.05;2.63;;;;;;;;;;5023618;28;20018;-75
2023/07/18 05:40:22;;;;;;;10.10;2.55;;;;;;;;;;5015065;28;20084;-75
2023/07/18 05:42:47;;;;;;;5.28;3.00;;;;;;;;;;5015018;28;20018;-75
2023/07/18 05:45:12;;;;;;;5.07;2.30;;;;;;;;;;5014618;28;20026;-75
2023/07/18 05:47:38;;;;;;;6.20;2.90;;;;;;;;;;5014707;28;20024;-76
2023/07/18 05:50:05;;;;;;;6.13;2.63;;;;;;;;;;5014886;28;20041;-75
2023/07/18 05:52:30;;;;;;;5.03;2.70;;;;;;;;;;5032632;28;20478;-75
2023/07/18 05:54:56;;;;;;;6.25;2.78;;;;;;;;;;5014692;28;20053;-74
2023/07/18 05:57:21;;;;;;;6.25;2.45;;;;;;;;;;5032364;28;20112;-76
2023/07/18 05:59:47;;;;;;;6.13;2.38;;;;;;;;;;5034644;28;20036;-77
2023/07/18 06:02:13;;;;;;;7.10;2.53;;;;;;;;;;5035854;28;20448;-74
2023/07/18 06:04:38;;;;;;;4.82;2.55;;;;;;;;;;5024071;28;20440;-75
2023/07/18 06:07:04;;;;;;;5.88;2.30;;;;;;;;;;5034919;28;20029;-75
2023/07/18 06:09:30;;;;;;;5.47;2.53;;;;;;;;;;5016356;28;20108;-75
2023/07/18 06:11:55;;;;;;;6.43;2.08;;;;;;;;;;5032755;28;20423;-76
2023/07/18 06:14:20;;;;;;;4.13;2.10;;;;;;;;;;5014478;28;20469;-75
2023/07/18 06:16:46;;;;;;;5.10;1.65;;;;;;;;;;5031973;28;20022;-75
2023/07/18 06:19:12;;;;;;;4.50;2.10;;;;;;;;;;5017983;28;20080;-75
2023/07/18 06:21:38;;;;;;;4.18;1.98;;;;;;;;;;5014379;28;20017;-75
2023/07/18 06:24:04;;;;;;;4.93;2.50;;;;;;;;;;5014193;28;20604;-76
2023/07/18 06:26:30;;;;;;;4.05;2.10;;;;;;;;;;5014310;28;20089;-75
2023/07/18 06:28:55;;;;;;;6.28;2.20;;;;;;;;;;5031992;28;20024;-75
2023/07/18 06:31:21;;;;;;;5.22;2.00;;;;;;;;;;5012106;28;20033;-75
2023/07/18 06:33:46;;;;;;;7.07;2.15;;;;;;;;;;5014294;28;20029;-76
2023/07/18 06:36:13;;;;;;;4.10;1.90;;;;;;;;;;5032192;28;20478;-75
2023/07/18 06:38:38;;;;;;;4.53;2.40;;;;;;;;;;5014327;28;20474;-75
2023/07/18 06:41:04;;;;;;;5.32;2.10;;;;;;;;;;5033898;28;20060;-75
2023/07/18 06:43:29;;;;;;;6.63;2.42;;;;;;;;;;4999614;28;20117;-76
2023/07/18 06:45:55;;;;;;;6.57;2.17;;;;;;;;;;5035235;28;20025;-75
2023/07/18 06:48:20;;;;;;;4.85;2.47;;;;;;;;;;5019072;28;20017;-76
2023/07/18 06:50:52;;;;;;;7.22;2.80;;;;;;;;;;5035143;28;20068;-75
2023/07/18 06:53:19;;;;;;;4.72;2.28;;;;;;;;;;5017621;28;20044;-75
2023/07/18 06:55:46;;;;;;;6.07;2.53;;;;;;;;;;5029869;28;20022;-75
2023/07/18 06:58:11;;;;;;;4.95;2.40;;;;;;;;;;5018154;28;20551;-75
2023/07/18 07:00:38;;;;;;;4.78;2.08;;;;;;;;;;5034981;28;20022;-75
2023/07/18 07:03:04;;;;;;;7.57;2.17;;;;;;;;;;5016570;28;20051;-75
2023/07/18 07:05:29;;;;;;;6.50;2.50;;;;;;;;;;5034867;28;20030;-75
2023/07/18 07:07:55;;;;;;;4.75;2.70;;;;;;;;;;5017849;28;20064;-75
2023/07/18 07:10:20;;;;;;;5.95;2.47;;;;;;;;;;5017176;28;20017;-76
2023/07/18 07:12:46;;;;;;;6.50;2.22;;;;;;;;;;5034759;28;20025;-75
2023/07/18 07:15:11;;;;;;;5.28;2.42;;;;;;;;;;5017820;28;20025;-75
2023/07/18 07:17:37;;;;;;;5.93;2.13;;;;;;;;;;5017320;28;20398;-75
2023/07/18 07:20:05;;;;;;;10.57;3.08;;;;;;;;;;5016856;28;20018;-75
2023/07/18 07:22:30;;;;;;;5.45;2.38;;;;;;;;;;5034900;28;20071;-75
2023/07/18 07:24:56;;;;;;;6.10;2.50;;;;;;;;;;5034563;28;20029;-75
2023/07/18 07:27:22;;;;;;;6.47;2.60;;;;;;;;;;5034621;28;20034;-75
2023/07/18 07:29:49;;;;;;;8.23;2.63;;;;;;;;;;5017254;28;20030;-76
2023/07/18 07:32:14;;;;;;;6.82;2.55;;;;;;;;;;5044534;28;20050;-75
2023/07/18 07:34:40;;;;;;;8.23;2.65;;;;;;;;;;5019220;28;20025;-75
2023/07/18 07:37:05;;;;;;;6.40;2.35;;;;;;;;;;5039816;28;20091;-75
2023/07/18 07:39:30;;;;;;;4.82;2.30;;;;;;;;;;5016654;28;20473;-75
2023/07/18 07:41:56;;;;;;;6.20;2.15;;;;;;;;;;5016762;28;20037;-75
2023/07/18 07:44:21;;;;;;;7.20;2.10;;;;;;;;;;5033009;28;20035;-76
2023/07/18 07:46:46;;;;;;;5.10;2.08;;;;;;;;;;5016664;28;20109;-75
2023/07/18 07:49:12;;;;;;;7.05;2.28;;;;;;;;;;5029504;28;20040;-75
2023/07/18 07:51:37;;;;;;;7.00;1.85;;;;;;;;;;5015416;28;20025;-75
2023/07/18 07:54:03;;;;;;;6.38;2.20;;;;;;;;;;5024227;28;20112;-75
2023/07/18 07:56:28;;;;;;;4.72;1.70;;;;;;;;;;5034374;28;20091;-76
2023/07/18 07:58:54;;;;;;;4.93;1.70;;;;;;;;;;5022203;28;20044;-75
2023/07/18 08:01:20;;;;;;;7.28;2.20;;;;;;;;;;5016012;28;20029;-75
2023/07/18 08:03:45;;;;;;;3.90;1.60;;;;;;;;;;5018356;28;20055;-75
2023/07/18 08:06:11;;;;;;;4.10;1.67;;;;;;;;;;5019540;28;20037;-74
2023/07/18 08:08:36;;;;;;;3.75;1.60;;;;;;;;;;5016348;28;20036;-75
2023/07/18 08:11:03;;;;;;;3.65;1.58;;;;;;;;;;5032803;28;20443;-75
2023/07/18 08:13:28;;;;;;;4.00;1.50;;;;;;;;;;5021462;28;20025;-74
2023/07/18 08:15:55;;;;;;;3.75;1.42;;;;;;;;;;5015830;28;20377;-75
2023/07/18 08:18:21;;;;;;;2.95;1.33;;;;;;;;;;5015881;28;20021;-77
2023/07/18 08:20:47;;;;;;;4.60;1.33;;;;;;;;;;5019141;28;20148;-75
2023/07/18 08:23:13;;;;;;;5.97;1.77;;;;;;;;;;5031295;28;20493;-75
2023/07/18 08:25:38;;;;;;;2.95;1.17;;;;;;;;;;5009799;28;20102;-75
2023/07/18 08:28:04;;;;;;;4.05;1.23;;;;;;;;;;5033650;28;20045;-76
2023/07/18 08:30:29;;;;;;;4.50;1.30;;;;;;;;;;5033392;28;20037;-75
2023/07/18 08:32:55;;;;;;;4.20;1.10;;;;;;;;;;5033400;28;20025;-75
2023/07/18 08:35:20;;;;;;;15.02;1.40;;;;;;;;;;5028724;28;20096;-75
2023/07/18 08:37:45;;;;;;;5.28;1.20;;;;;;;;;;5033226;28;20043;-74
2023/07/18 08:40:12;;;;;;;3.22;1.13;;;;;;;;;;5033242;28;20025;-74
2023/07/18 08:42:38;;;;;;;3.38;1.00;;;;;;;;;;5033122;28;20029;-75
2023/07/18 08:45:05;;;;;;;5.55;1.00;;;;;;;;;;5024505;28;20153;-76
2023/07/18 08:47:31;;;;;;;4.15;1.38;;;;;;;;;;5004819;28;20074;-76
2023/07/18 08:49:58;;;;;;;2.70;0.90;;;;;;;;;;5015490;28;20013;-75
2023/07/18 08:52:24;;;;;;;5.15;1.33;;;;;;;;;;5015110;28;20025;-76
2023/07/18 08:54:49;;;;;;;2.88;0.95;;;;;;;;;;5015628;28;20406;-76
2023/07/18 08:57:15;;;;;;;2.97;0.90;;;;;;;;;;5033064;28;20401;-75
2023/07/18 08:59:41;;;;;;;3.65;0.90;;;;;;;;;;5016889;28;20063;-75
2023/07/18 09:02:06;;;;;;;2.47;0.70;;;;;;;;;;5032493;28;20032;-75
2023/07/18 09:04:31;;;;;;;3.15;1.15;;;;;;;;;;5032553;28;20490;-75
2023/07/18 09:07:01;;;;;;;3.13;0.80;;;;;;;;;;5028466;28;20025;-75
2023/07/18 09:09:27;;;;;;;3.38;0.77;;;;;;;;;;5022791;28;20028;-75
2023/07/18 09:11:57;;;;;;;2.38;0.88;;;;;;;;;;5017213;28;20474;-75
2023/07/18 09:14:28;;;;;;;3.08;0.70;;;;;;;;;;5019538;28;20090;-76
2023/07/18 09:17:01;;;;;;;3.03;0.68;;;;;;;;;;5032523;28;20092;-76
2023/07/18 09:19:41;;;;;;;2.72;0.50;;;;;;;;;;5032724;28;20504;-76
2023/07/18 09:22:09;;;;;;;3.05;0.70;;;;;;;;;;5030731;28;20063;-76
2023/07/18 09:24:38;;;;;;;2.45;0.68;;;;;;;;;;5013439;28;20550;-77
2023/07/18 09:27:05;;;;;;;1.15;0.60;;;;;;;;;;5016197;28;20025;-75
2023/07/18 09:29:31;;;;;;;4.88;0.70;;;;;;;;;;5032632;28;20040;-76
2023/07/18 09:31:56;;;;;;;1.65;0.50;;;;;;;;;;5014719;28;20021;-75
2023/07/18 09:34:25;;;;;;;3.50;0.60;;;;;;;;;;5014463;28;20112;-75
2023/07/18 09:36:59;;;;;;;2.75;0.60;;;;;;;;;;5038502;28;20024;-76
2023/07/18 09:39:26;;;;;;;1.30;0.55;;;;;;;;;;5015720;28;20021;-76
2023/07/18 09:41:52;;;;;;;2.15;0.60;;;;;;;;;;5014661;28;20053;-75
2023/07/18 09:44:18;;;;;;;1.50;0.50;;;;;;;;;;5032556;28;20025;-75
2023/07/18 09:46:44;;;;;;;2.25;0.60;;;;;;;;;;5014514;28;20462;-75
2023/07/18 09:49:09;;;;;;;1.00;0.50;;;;;;;;;;5014654;28;20056;-76
2023/07/18 09:51:37;;;;;;;2.03;0.45;;;;;;;;;;5019696;28;20079;-76
2023/07/18 09:54:09;;;;;;;2.53;0.40;;;;;;;;;;5014616;28;20025;-75
2023/07/18 09:56:39;;;;;;;1.17;0.60;;;;;;;;;;5020714;28;20021;-76
2023/07/18 09:59:07;;;;;;;1.00;0.43;;;;;;;;;;4998806;28;20037;-76
2023/07/18 10:01:33;;;;;;;1.80;0.57;;;;;;;;;;5041258;28;20497;-76
2023/07/18 10:03:58;;;;;;;1.75;0.43;;;;;;;;;;5017123;28;20026;-75
2023/07/18 10:06:25;;;;;;;2.33;0.57;;;;;;;;;;5031869;28;20064;-77
2023/07/18 10:08:53;;;;;;;2.10;0.60;;;;;;;;;;5014422;28;20033;-77
2023/07/18 10:11:18;;;;;;;1.55;0.65;;;;;;;;;;5014879;28;20421;-75
2023/07/18 10:14:05;;;;;;;4.85;0.63;;;;;;;;;;5014275;28;20067;-75
2023/07/18 10:16:34;;;;;;;1.55;0.50;;;;;;;;;;5015879;28;20026;-75
2023/07/18 10:19:17;;;;;;;0.90;0.43;;;;;;;;;;5036002;28;20428;-76
2023/07/18 10:21:46;;;;;;;4.22;0.60;;;;;;;;;;5018252;28;20136;-78
2023/07/18 10:24:24;;;;;;;3.38;0.52;;;;;;;;;;5039146;28;20039;-76
2023/07/18 10:27:06;;;;;;;2.25;0.80;;;;;;;;;;5036271;28;20021;-76
2023/07/18 10:29:32;;;;;;;2.13;0.47;;;;;;;;;;5018142;28;20378;-75
2023/07/18 10:32:03;;;;;;;1.48;0.55;;;;;;;;;;5017975;28;20148;-76
2023/07/18 10:34:28;;;;;;;1.08;0.50;;;;;;;;;;5035603;28;20041;-76
2023/07/18 10:36:59;;;;;;;3.33;0.50;;;;;;;;;;5017812;28;20018;-76
2023/07/18 10:39:41;;;;;;;2.15;0.70;;;;;;;;;;5015930;28;20033;-77
2023/07/18 10:42:07;;;;;;;2.40;0.60;;;;;;;;;;5014761;28;20026;-77
2023/07/18 10:44:36;;;;;;;1.55;0.50;;;;;;;;;;5017552;28;20063;-75
2023/07/18 10:47:19;;;;;;;1.45;0.60;;;;;;;;;;5035407;28;20031;-76
2023/07/18 10:49:47;;;;;;;;;;;;;;;;;;5035269;28;20029;-75
2023/07/18 10:52:13;;;;;;;2.42;0.60;;;;;;;;;;5035239;28;20389;-75
2023/07/18 10:54:49;;;;;;;2.28;0.40;;;;;;;;;;5031701;28;20492;-76
2023/07/18 10:57:15;;;;;;;2.53;0.50;;;;;;;;;;5019225;28;20444;-76
2023/07/18 10:59:44;;;;;;;3.28;0.60;;;;;;;;;;5016762;28;20548;-76
2023/07/18 11:02:10;;;;;;;0.68;0.40;;;;;;;;;;5015568;28;20052;-76
2023/07/18 11:04:36;;;;;;;0.80;0.40;;;;;;;;;;5016055;28;20040;-75
2023/07/18 11:07:01;;;;;;;2.90;0.90;;;;;;;;;;5017231;28;20021;-76
2023/07/18 11:09:27;;;;;;;0.60;0.38;;;;;;;;;;5023269;28;20017;-76
2023/07/18 11:11:54;;;;;;;1.42;0.52;;;;;;;;;;5035069;28;20456;-76
2023/07/18 11:14:19;;;;;;;1.45;0.50;;;;;;;;;;5017161;28;20101;-76
2023/07/18 11:16:45;;;;;;;1.33;0.60;;;;;;;;;;5035305;28;20032;-76
2023/07/18 11:19:11;;;;;;;2.35;0.90;;;;;;;;;;5017337;28;20478;-76
2023/07/18 11:21:37;;;;;;;2.80;0.80;;;;;;;;;;5035318;28;21044;-76
2023/07/18 11:24:03;;;;;;;2.75;0.80;;;;;;;;;;5017202;28;20052;-76
2023/07/18 11:26:29;;;;;;;2.13;0.57;;;;;;;;;;5000294;28;20044;-76
2023/07/18 11:28:57;;;;;;;2.13;0.63;;;;;;;;;;5016903;28;20108;-76
2023/07/18 11:31:25;;;;;;;2.33;0.52;;;;;;;;;;5018581;28;20025;-75
2023/07/18 11:33:52;;;;;;;3.30;0.50;;;;;;;;;;5016664;28;20030;-76
2023/07/18 11:36:18;;;;;;;2.00;0.55;;;;;;;;;;5020537;28;20601;-77
2023/07/18 11:38:44;;;;;;;1.60;0.40;;;;;;;;;;5016895;28;20037;-76
2023/07/18 11:41:32;;;;;;;3.67;0.80;;;;;;;;;;5016577;28;20029;-76
2023/07/18 11:43:58;;;;;;;0.80;0.50;;;;;;;;;;5034413;28;20017;-76
2023/07/18 11:46:44;;;;;;;4.18;0.88;;;;;;;;;;5020031;28;20025;-76
2023/07/18 11:49:15;;;;;;;2.38;0.80;;;;;;;;;;5036838;28;20128;-76
2023/07/18 11:51:41;;;;;;;1.88;0.50;;;;;;;;;;5024579;28;20029;-76
2023/07/18 11:54:07;;;;;;;2.95;0.70;;;;;;;;;;5034439;28;20104;-75
2023/07/18 11:56:34;;;;;;;2.25;0.80;;;;;;;;;;5033334;28;20511;-76
2023/07/18 11:59:00;;;;;;;2.22;0.70;;;;;;;;;;5016447;28;20489;-76
2023/07/18 12:01:26;;;;;;;2.17;0.77;;;;;;;;;;5034337;28;20033;-76
2023/07/18 12:03:52;;;;;;;2.35;0.90;;;;;;;;;;5033674;28;20025;-75
2023/07/18 12:06:23;;;;;;;1.88;0.77;;;;;;;;;;5033988;28;20025;-76
2023/07/18 12:08:49;;;;;;;3.72;0.80;;;;;;;;;;5036897;28;20025;-76
2023/07/18 12:11:15;;;;;;;2.45;0.90;;;;;;;;;;5038658;28;20025;-75
2023/07/18 12:13:41;;;;;;;2.78;1.00;;;;;;;;;;5018686;28;20114;-76
2023/07/18 12:16:06;;;;;;;4.68;0.80;;;;;;;;;;5016143;28;20021;-75
2023/07/18 12:18:31;;;;;;;3.08;0.93;;;;;;;;;;5033869;28;20100;-76
2023/07/18 12:20:57;;;;;;;2.40;1.55;;;;;;;;;;5033982;28;20382;-77
2023/07/18 12:23:23;;;;;;;5.47;0.85;;;;;;;;;;5016086;28;20033;-75
2023/07/18 12:25:49;;;;;;;2.90;0.98;;;;;;;;;;5021561;28;20385;-75
2023/07/18 12:28:14;;;;;;;2.53;0.77;;;;;;;;;;5033645;28;20083;-76
2023/07/18 12:30:40;;;;;;;2.65;0.90;;;;;;;;;;5033305;28;20037;-75
2023/07/18 12:33:05;;;;;;;1.48;0.63;;;;;;;;;;5036082;28;20394;-75
2023/07/18 12:35:31;;;;;;;3.45;0.80;;;;;;;;;;5014741;28;20073;-76
2023/07/18 12:37:56;;;;;;;2.72;0.90;;;;;;;;;;5015514;28;20466;-75
2023/07/18 12:40:22;;;;;;;3.55;1.55;;;;;;;;;;5033282;28;20025;-76
2023/07/18 12:42:48;;;;;;;2.55;0.80;;;;;;;;;;5029846;28;20064;-77
2023/07/18 12:45:13;;;;;;;2.78;0.80;;;;;;;;;;5015449;28;20049;-76
2023/07/18 12:47:39;;;;;;;2.55;0.90;;;;;;;;;;5016092;28;20212;-76
2023/07/18 12:50:06;;;;;;;2.83;1.05;;;;;;;;;;5032837;28;20052;-77
2023/07/18 12:52:32;;;;;;;3.35;0.80;;;;;;;;;;5033243;28;20108;-75
2023/07/18 12:54:58;;;;;;;1.45;0.70;;;;;;;;;;5033032;28;20021;-76
2023/07/18 12:57:23;;;;;;;2.90;0.90;;;;;;;;;;5026990;28;20033;-76
2023/07/18 12:59:49;;;;;;;2.95;0.80;;;;;;;;;;5012836;28;20029;-76
2023/07/18 13:02:14;;;;;;;6.95;0.80;;;;;;;;;;4996100;28;20030;-76
2023/07/18 13:04:41;;;;;;;3.85;0.90;;;;;;;;;;5032817;28;20029;-75
2023/07/18 13:07:07;;;;;;;3.70;0.70;;;;;;;;;;5034665;28;20443;-76
2023/07/18 13:09:33;;;;;;;3.30;1.17;;;;;;;;;;5032971;28;20151;-75
2023/07/18 13:11:58;;;;;;;2.58;0.75;;;;;;;;;;5016492;28;20032;-76
2023/07/18 13:14:24;;;;;;;3.40;0.95;;;;;;;;;;5033102;28;20474;-76
2023/07/18 13:16:50;;;;;;;2.42;0.80;;;;;;;;;;5032681;28;20526;-75
2023/07/18 13:19:15;;;;;;;2.05;0.63;;;;;;;;;;5013094;28;20493;-76
2023/07/18 13:21:41;;;;;;;2.38;0.65;;;;;;;;;;5018616;28;20123;-75
2023/07/18 13:24:07;;;;;;;1.70;0.95;;;;;;;;;;5015011;28;20036;-75
2023/07/18 13:26:32;;;;;;;2.10;0.70;;;;;;;;;;5032536;28;20017;-76
2023/07/18 13:28:58;;;;;;;1.52;0.43;;;;;;;;;;5038928;28;20033;-77
2023/07/18 13:31:23;;;;;;;3.72;0.70;;;;;;;;;;5038996;28;20067;-76
2023/07/18 13:33:49;;;;;;;6.78;0.95;;;;;;;;;;5014683;28;20096;-76
2023/07/18 13:36:14;;;;;;;2.65;0.50;;;;;;;;;;5032436;28;20025;-76
2023/07/18 13:38:40;;;;;;;3.00;0.65;;;;;;;;;;5040113;28;20032;-76
2023/07/18 13:41:08;;;;;;;1.38;0.70;;;;;;;;;;5018710;28;20025;-76
2023/07/18 13:43:41;;;;;;;2.30;0.80;;;;;;;;;;5019029;28;20021;-76
2023/07/18 13:46:07;;;;;;;2.70;0.70;;;;;;;;;;5014497;28;20026;-76
2023/07/18 13:48:33;;;;;;;2.08;0.80;;;;;;;;;;5037815;28;20029;-76
2023/07/18 13:50:59;;;;;;;2.00;0.80;;;;;;;;;;5036021;28;20029;-77
2023/07/18 13:53:24;;;;;;;2.13;0.70;;;;;;;;;;5030993;28;20097;-77
2023/07/18 13:55:50;;;;;;;1.98;0.63;;;;;;;;;;5018578;28;20037;-76
2023/07/18 13:58:15;;;;;;;1.13;0.70;;;;;;;;;;5019095;28;20030;-76
2023/07/18 14:00:41;;;;;;;3.53;0.93;;;;;;;;;;5037115;28;20163;-76
2023/07/18 14:03:06;;;;;;;1.48;0.65;;;;;;;;;;5022430;28;20032;-76
2023/07/18 14:05:33;;;;;;;2.88;0.70;;;;;;;;;;5022864;28;20029;-76
2023/07/18 14:07:58;;;;;;;1.27;0.60;;;;;;;;;;5018667;28;20032;-76
2023/07/18 14:10:24;;;;;;;3.90;1.00;;;;;;;;;;5018613;28;20390;-76
2023/07/18 14:12:49;;;;;;;2.97;0.77;;;;;;;;;;5038109;28;20018;-77
2023/07/18 14:15:15;;;;;;;1.77;0.70;;;;;;;;;;5018502;28;20108;-76
2023/07/18 14:17:40;;;;;;;3.60;0.77;;;;;;;;;;5018694;28;20121;-76
2023/07/18 14:20:06;;;;;;;1.88;0.77;;;;;;;;;;5022126;28;20496;-76
2023/07/18 14:22:32;;;;;;;3.85;0.80;;;;;;;;;;5019292;28;20021;-76
2023/07/18 14:24:58;;;;;;;1.95;0.63;;;;;;;;;;5018072;28;20025;-77
2023/07/18 14:27:23;;;;;;;4.05;0.70;;;;;;;;;;5018105;28;20037;-75
2023/07/18 14:29:48;;;;;;;2.33;0.60;;;;;;;;;;5035895;28;20083;-76
2023/07/18 14:32:14;;;;;;;2.55;1.00;;;;;;;;;;5040912;28;20156;-76
2023/07/18 14:34:39;;;;;;;1.50;0.68;;;;;;;;;;5016427;28;20045;-76
2023/07/18 14:37:05;;;;;;;2.13;0.60;;;;;;;;;;5035630;28;20025;-76
2023/07/18 14:39:31;;;;;;;2.00;0.60;;;;;;;;;;5035732;28;20028;-76